sensor_id;sensor_type;location;lat;lon;timestamp;P1;durP1;ratioP1;P2;durP2;ratioP2
56242;SDS011;42155;53.096;23.226;2024-03-08T00:01:48;215.73;;;91.20;;
56242;SDS011;42155;53.096;23.226;2024-03-08T00:03:49;220.32;;;91.65;;
56242;SDS011;42155;53.096;23.226;2024-03-08T00:05:49;225.93;;;91.82;;
56242;SDS011;42155;53.096;23.226;2024-03-08T00:07:50;224.38;;;90.30;;
56242;SDS011;42155;53.096;23.226;2024-03-08T00:09:50;218.35;;;92.30;;
56242;SDS011;42155;53.096;23.226;2024-03-08T00:11:50;226.98;;;95.30;;
56242;SDS011;42155;53.096;23.226;2024-03-08T00:13:51;236.95;;;96.68;;
56242;SDS011;42155;53.096;23.226;2024-03-08T00:15:52;218.85;;;93.20;;
56242;SDS011;42155;53.096;23.226;2024-03-08T00:17:52;249.70;;;101.15;;
56242;SDS011;42155;53.096;23.226;2024-03-08T00:19:53;248.65;;;96.45;;
56242;SDS011;42155;53.096;23.226;2024-03-08T00:21:53;239.85;;;97.47;;
56242;SDS011;42155;53.096;23.226;2024-03-08T00:23:53;268.48;;;104.80;;
56242;SDS011;42155;53.096;23.226;2024-03-08T00:25:54;252.63;;;102.13;;
56242;SDS011;42155;53.096;23.226;2024-03-08T00:27:54;265.83;;;104.93;;
56242;SDS011;42155;53.096;23.226;2024-03-08T00:29:54;264.80;;;101.97;;
56242;SDS011;42155;53.096;23.226;2024-03-08T00:31:55;273.33;;;103.85;;
56242;SDS011;42155;53.096;23.226;2024-03-08T00:33:55;277.48;;;108.43;;
56242;SDS011;42155;53.096;23.226;2024-03-08T00:35:55;267.85;;;102.97;;
56242;SDS011;42155;53.096;23.226;2024-03-08T00:37:56;259.77;;;103.80;;
56242;SDS011;42155;53.096;23.226;2024-03-08T00:39:56;255.57;;;98.65;;
56242;SDS011;42155;53.096;23.226;2024-03-08T00:41:56;253.93;;;100.75;;
56242;SDS011;42155;53.096;23.226;2024-03-08T00:43:57;220.65;;;87.18;;
56242;SDS011;42155;53.096;23.226;2024-03-08T00:45:57;205.25;;;84.45;;
56242;SDS011;42155;53.096;23.226;2024-03-08T00:47:57;202.63;;;82.97;;
56242;SDS011;42155;53.096;23.226;2024-03-08T00:49:58;244.15;;;97.40;;
56242;SDS011;42155;53.096;23.226;2024-03-08T00:51:58;235.25;;;92.43;;
56242;SDS011;42155;53.096;23.226;2024-03-08T00:53:58;233.30;;;96.60;;
56242;SDS011;42155;53.096;23.226;2024-03-08T00:55:59;220.90;;;87.68;;
56242;SDS011;42155;53.096;23.226;2024-03-08T00:57:59;215.27;;;88.70;;
56242;SDS011;42155;53.096;23.226;2024-03-08T01:00:02;200.05;;;84.13;;
56242;SDS011;42155;53.096;23.226;2024-03-08T01:02:03;205.45;;;85.13;;
56242;SDS011;42155;53.096;23.226;2024-03-08T01:04:03;218.82;;;89.32;;
56242;SDS011;42155;53.096;23.226;2024-03-08T01:06:04;211.55;;;84.47;;
56242;SDS011;42155;53.096;23.226;2024-03-08T01:08:04;217.80;;;90.53;;
56242;SDS011;42155;53.096;23.226;2024-03-08T01:10:05;217.20;;;86.80;;
56242;SDS011;42155;53.096;23.226;2024-03-08T01:12:06;190.77;;;83.05;;
56242;SDS011;42155;53.096;23.226;2024-03-08T01:14:06;217.52;;;89.38;;
56242;SDS011;42155;53.096;23.226;2024-03-08T01:16:07;195.32;;;83.10;;
56242;SDS011;42155;53.096;23.226;2024-03-08T01:18:07;202.52;;;86.57;;
56242;SDS011;42155;53.096;23.226;2024-03-08T01:20:08;203.50;;;87.38;;
56242;SDS011;42155;53.096;23.226;2024-03-08T01:22:08;211.98;;;89.03;;
56242;SDS011;42155;53.096;23.226;2024-03-08T01:24:08;198.55;;;85.07;;
56242;SDS011;42155;53.096;23.226;2024-03-08T01:26:09;210.50;;;88.32;;
56242;SDS011;42155;53.096;23.226;2024-03-08T01:28:09;198.98;;;82.95;;
56242;SDS011;42155;53.096;23.226;2024-03-08T01:30:10;223.60;;;92.45;;
56242;SDS011;42155;53.096;23.226;2024-03-08T01:32:10;245.68;;;99.82;;
56242;SDS011;42155;53.096;23.226;2024-03-08T01:34:10;250.95;;;102.45;;
56242;SDS011;42155;53.096;23.226;2024-03-08T01:36:11;267.80;;;105.95;;
56242;SDS011;42155;53.096;23.226;2024-03-08T01:38:11;245.95;;;98.75;;
56242;SDS011;42155;53.096;23.226;2024-03-08T01:40:11;240.57;;;97.43;;
56242;SDS011;42155;53.096;23.226;2024-03-08T01:42:12;240.35;;;98.07;;
56242;SDS011;42155;53.096;23.226;2024-03-08T01:44:12;234.85;;;96.18;;
56242;SDS011;42155;53.096;23.226;2024-03-08T01:46:13;219.27;;;88.47;;
56242;SDS011;42155;53.096;23.226;2024-03-08T01:48:17;211.85;;;85.57;;
56242;SDS011;42155;53.096;23.226;2024-03-08T01:50:18;213.52;;;89.45;;
56242;SDS011;42155;53.096;23.226;2024-03-08T01:52:19;204.02;;;84.22;;
56242;SDS011;42155;53.096;23.226;2024-03-08T01:54:19;209.27;;;88.32;;
56242;SDS011;42155;53.096;23.226;2024-03-08T01:56:20;214.20;;;86.88;;
56242;SDS011;42155;53.096;23.226;2024-03-08T01:58:20;241.10;;;96.45;;
56242;SDS011;42155;53.096;23.226;2024-03-08T02:00:22;219.50;;;90.38;;
56242;SDS011;42155;53.096;23.226;2024-03-08T02:02:23;206.15;;;84.47;;
56242;SDS011;42155;53.096;23.226;2024-03-08T02:04:23;208.68;;;88.03;;
56242;SDS011;42155;53.096;23.226;2024-03-08T02:06:24;203.57;;;82.10;;
56242;SDS011;42155;53.096;23.226;2024-03-08T02:08:24;200.73;;;82.97;;
56242;SDS011;42155;53.096;23.226;2024-03-08T02:10:25;219.07;;;85.93;;
56242;SDS011;42155;53.096;23.226;2024-03-08T02:12:25;205.80;;;83.38;;
56242;SDS011;42155;53.096;23.226;2024-03-08T02:14:25;206.57;;;84.95;;
56242;SDS011;42155;53.096;23.226;2024-03-08T02:16:26;207.93;;;83.50;;
56242;SDS011;42155;53.096;23.226;2024-03-08T02:18:27;192.30;;;81.90;;
56242;SDS011;42155;53.096;23.226;2024-03-08T02:20:28;195.95;;;78.53;;
56242;SDS011;42155;53.096;23.226;2024-03-08T02:22:29;195.32;;;80.22;;
56242;SDS011;42155;53.096;23.226;2024-03-08T02:24:31;194.85;;;79.30;;
56242;SDS011;42155;53.096;23.226;2024-03-08T02:26:32;179.38;;;75.97;;
56242;SDS011;42155;53.096;23.226;2024-03-08T02:28:33;193.60;;;80.18;;
56242;SDS011;42155;53.096;23.226;2024-03-08T02:30:33;184.43;;;77.35;;
56242;SDS011;42155;53.096;23.226;2024-03-08T02:32:33;193.02;;;78.78;;
56242;SDS011;42155;53.096;23.226;2024-03-08T02:34:34;187.13;;;77.13;;
56242;SDS011;42155;53.096;23.226;2024-03-08T02:36:34;181.35;;;73.45;;
56242;SDS011;42155;53.096;23.226;2024-03-08T02:38:34;186.82;;;73.68;;
56242;SDS011;42155;53.096;23.226;2024-03-08T02:40:35;175.93;;;71.93;;
56242;SDS011;42155;53.096;23.226;2024-03-08T02:42:35;175.00;;;70.50;;
56242;SDS011;42155;53.096;23.226;2024-03-08T02:44:35;177.98;;;69.38;;
56242;SDS011;42155;53.096;23.226;2024-03-08T02:46:36;165.50;;;67.85;;
56242;SDS011;42155;53.096;23.226;2024-03-08T02:48:36;158.57;;;66.95;;
56242;SDS011;42155;53.096;23.226;2024-03-08T02:50:37;151.85;;;63.92;;
56242;SDS011;42155;53.096;23.226;2024-03-08T02:52:37;162.70;;;67.35;;
56242;SDS011;42155;53.096;23.226;2024-03-08T02:54:38;158.18;;;63.70;;
56242;SDS011;42155;53.096;23.226;2024-03-08T02:56:38;157.40;;;66.15;;
56242;SDS011;42155;53.096;23.226;2024-03-08T02:58:38;155.27;;;64.88;;
56242;SDS011;42155;53.096;23.226;2024-03-08T03:00:39;168.90;;;67.13;;
56242;SDS011;42155;53.096;23.226;2024-03-08T03:02:39;168.02;;;68.68;;
56242;SDS011;42155;53.096;23.226;2024-03-08T03:04:40;161.55;;;65.63;;
56242;SDS011;42155;53.096;23.226;2024-03-08T03:06:41;160.60;;;66.50;;
56242;SDS011;42155;53.096;23.226;2024-03-08T03:08:41;159.77;;;65.95;;
56242;SDS011;42155;53.096;23.226;2024-03-08T03:10:41;171.00;;;67.75;;
56242;SDS011;42155;53.096;23.226;2024-03-08T03:12:42;160.13;;;65.03;;
56242;SDS011;42155;53.096;23.226;2024-03-08T03:14:42;154.18;;;63.40;;
56242;SDS011;42155;53.096;23.226;2024-03-08T03:16:43;158.65;;;64.78;;
56242;SDS011;42155;53.096;23.226;2024-03-08T03:18:43;155.63;;;64.22;;
56242;SDS011;42155;53.096;23.226;2024-03-08T03:20:43;162.45;;;63.88;;
56242;SDS011;42155;53.096;23.226;2024-03-08T03:22:44;151.68;;;61.20;;
56242;SDS011;42155;53.096;23.226;2024-03-08T03:24:44;151.27;;;60.88;;
56242;SDS011;42155;53.096;23.226;2024-03-08T03:26:45;142.93;;;57.40;;
56242;SDS011;42155;53.096;23.226;2024-03-08T03:28:45;137.77;;;57.42;;
56242;SDS011;42155;53.096;23.226;2024-03-08T03:30:46;135.90;;;55.97;;
56242;SDS011;42155;53.096;23.226;2024-03-08T03:32:49;150.70;;;58.80;;
56242;SDS011;42155;53.096;23.226;2024-03-08T03:34:50;140.48;;;54.33;;
56242;SDS011;42155;53.096;23.226;2024-03-08T03:36:50;131.50;;;53.80;;
56242;SDS011;42155;53.096;23.226;2024-03-08T03:38:50;135.35;;;53.70;;
56242;SDS011;42155;53.096;23.226;2024-03-08T03:40:51;136.77;;;56.33;;
56242;SDS011;42155;53.096;23.226;2024-03-08T03:42:51;139.77;;;55.38;;
56242;SDS011;42155;53.096;23.226;2024-03-08T03:44:51;140.85;;;57.00;;
56242;SDS011;42155;53.096;23.226;2024-03-08T03:46:52;137.75;;;55.45;;
56242;SDS011;42155;53.096;23.226;2024-03-08T03:48:53;136.07;;;52.38;;
56242;SDS011;42155;53.096;23.226;2024-03-08T03:50:54;138.82;;;55.35;;
56242;SDS011;42155;53.096;23.226;2024-03-08T03:52:54;139.93;;;56.00;;
56242;SDS011;42155;53.096;23.226;2024-03-08T03:54:55;143.30;;;53.13;;
56242;SDS011;42155;53.096;23.226;2024-03-08T03:56:56;130.18;;;52.72;;
56242;SDS011;42155;53.096;23.226;2024-03-08T03:58:56;135.07;;;54.47;;
56242;SDS011;42155;53.096;23.226;2024-03-08T04:00:56;132.90;;;53.47;;
56242;SDS011;42155;53.096;23.226;2024-03-08T04:02:57;131.93;;;51.15;;
56242;SDS011;42155;53.096;23.226;2024-03-08T04:04:57;131.32;;;54.05;;
56242;SDS011;42155;53.096;23.226;2024-03-08T04:06:57;140.95;;;55.78;;
56242;SDS011;42155;53.096;23.226;2024-03-08T04:08:58;139.73;;;53.60;;
56242;SDS011;42155;53.096;23.226;2024-03-08T04:10:58;132.30;;;53.35;;
56242;SDS011;42155;53.096;23.226;2024-03-08T04:12:58;128.98;;;53.75;;
56242;SDS011;42155;53.096;23.226;2024-03-08T04:14:59;147.27;;;56.90;;
56242;SDS011;42155;53.096;23.226;2024-03-08T04:16:59;127.82;;;49.58;;
56242;SDS011;42155;53.096;23.226;2024-03-08T04:19:00;121.78;;;49.42;;
56242;SDS011;42155;53.096;23.226;2024-03-08T04:21:00;118.95;;;48.70;;
56242;SDS011;42155;53.096;23.226;2024-03-08T04:23:00;122.07;;;45.97;;
56242;SDS011;42155;53.096;23.226;2024-03-08T04:25:01;123.38;;;47.22;;
56242;SDS011;42155;53.096;23.226;2024-03-08T04:27:02;112.10;;;44.10;;
56242;SDS011;42155;53.096;23.226;2024-03-08T04:29:03;118.22;;;45.55;;
56242;SDS011;42155;53.096;23.226;2024-03-08T04:31:03;119.60;;;47.08;;
56242;SDS011;42155;53.096;23.226;2024-03-08T04:33:04;112.95;;;44.92;;
56242;SDS011;42155;53.096;23.226;2024-03-08T04:35:04;112.38;;;46.35;;
56242;SDS011;42155;53.096;23.226;2024-03-08T04:37:05;108.45;;;44.95;;
56242;SDS011;42155;53.096;23.226;2024-03-08T04:39:05;109.22;;;44.03;;
56242;SDS011;42155;53.096;23.226;2024-03-08T04:41:06;111.57;;;45.55;;
56242;SDS011;42155;53.096;23.226;2024-03-08T04:43:07;116.72;;;48.75;;
56242;SDS011;42155;53.096;23.226;2024-03-08T04:45:08;120.40;;;48.17;;
56242;SDS011;42155;53.096;23.226;2024-03-08T04:47:09;119.78;;;51.65;;
56242;SDS011;42155;53.096;23.226;2024-03-08T04:49:09;129.18;;;47.35;;
56242;SDS011;42155;53.096;23.226;2024-03-08T04:51:09;114.10;;;46.33;;
56242;SDS011;42155;53.096;23.226;2024-03-08T04:53:10;124.20;;;48.22;;
56242;SDS011;42155;53.096;23.226;2024-03-08T04:55:10;129.50;;;49.67;;
56242;SDS011;42155;53.096;23.226;2024-03-08T04:57:11;127.43;;;50.67;;
56242;SDS011;42155;53.096;23.226;2024-03-08T04:59:11;125.97;;;48.38;;
56242;SDS011;42155;53.096;23.226;2024-03-08T05:01:12;117.38;;;46.95;;
56242;SDS011;42155;53.096;23.226;2024-03-08T05:03:12;115.82;;;45.88;;
56242;SDS011;42155;53.096;23.226;2024-03-08T05:05:13;109.78;;;45.13;;
56242;SDS011;42155;53.096;23.226;2024-03-08T05:07:13;123.60;;;47.60;;
56242;SDS011;42155;53.096;23.226;2024-03-08T05:09:14;116.72;;;47.47;;
56242;SDS011;42155;53.096;23.226;2024-03-08T05:11:14;111.03;;;47.05;;
56242;SDS011;42155;53.096;23.226;2024-03-08T05:13:14;117.72;;;46.88;;
56242;SDS011;42155;53.096;23.226;2024-03-08T05:15:15;120.80;;;49.85;;
56242;SDS011;42155;53.096;23.226;2024-03-08T05:17:15;115.55;;;47.13;;
56242;SDS011;42155;53.096;23.226;2024-03-08T05:19:16;121.95;;;49.85;;
56242;SDS011;42155;53.096;23.226;2024-03-08T05:21:17;128.25;;;51.15;;
56242;SDS011;42155;53.096;23.226;2024-03-08T05:23:17;125.13;;;49.40;;
56242;SDS011;42155;53.096;23.226;2024-03-08T05:25:18;125.55;;;52.70;;
56242;SDS011;42155;53.096;23.226;2024-03-08T05:27:18;126.90;;;53.45;;
56242;SDS011;42155;53.096;23.226;2024-03-08T05:29:18;132.63;;;55.83;;
56242;SDS011;42155;53.096;23.226;2024-03-08T05:31:19;134.75;;;55.10;;
56242;SDS011;42155;53.096;23.226;2024-03-08T05:33:20;134.43;;;54.10;;
56242;SDS011;42155;53.096;23.226;2024-03-08T05:35:20;148.10;;;52.05;;
56242;SDS011;42155;53.096;23.226;2024-03-08T05:37:21;128.25;;;55.03;;
56242;SDS011;42155;53.096;23.226;2024-03-08T05:39:21;130.50;;;53.15;;
56242;SDS011;42155;53.096;23.226;2024-03-08T05:41:21;132.60;;;53.28;;
56242;SDS011;42155;53.096;23.226;2024-03-08T05:43:22;131.23;;;53.90;;
56242;SDS011;42155;53.096;23.226;2024-03-08T05:45:22;126.70;;;53.50;;
56242;SDS011;42155;53.096;23.226;2024-03-08T05:47:22;123.50;;;51.80;;
56242;SDS011;42155;53.096;23.226;2024-03-08T05:49:23;117.32;;;48.03;;
56242;SDS011;42155;53.096;23.226;2024-03-08T05:51:23;127.40;;;54.20;;
56242;SDS011;42155;53.096;23.226;2024-03-08T05:53:24;124.65;;;53.47;;
56242;SDS011;42155;53.096;23.226;2024-03-08T05:55:24;111.30;;;48.00;;
56242;SDS011;42155;53.096;23.226;2024-03-08T05:57:25;116.78;;;47.78;;
56242;SDS011;42155;53.096;23.226;2024-03-08T05:59:25;117.85;;;50.20;;
56242;SDS011;42155;53.096;23.226;2024-03-08T06:01:25;119.13;;;51.10;;
56242;SDS011;42155;53.096;23.226;2024-03-08T06:03:26;119.38;;;52.65;;
56242;SDS011;42155;53.096;23.226;2024-03-08T06:05:26;121.38;;;52.50;;
56242;SDS011;42155;53.096;23.226;2024-03-08T06:07:27;114.70;;;50.75;;
56242;SDS011;42155;53.096;23.226;2024-03-08T06:09:27;117.82;;;53.10;;
56242;SDS011;42155;53.096;23.226;2024-03-08T06:11:27;112.68;;;52.45;;
56242;SDS011;42155;53.096;23.226;2024-03-08T06:13:28;111.70;;;53.35;;
56242;SDS011;42155;53.096;23.226;2024-03-08T06:15:28;110.53;;;53.90;;
56242;SDS011;42155;53.096;23.226;2024-03-08T06:17:28;115.78;;;55.85;;
56242;SDS011;42155;53.096;23.226;2024-03-08T06:19:29;113.95;;;57.97;;
56242;SDS011;42155;53.096;23.226;2024-03-08T06:21:29;113.75;;;56.50;;
56242;SDS011;42155;53.096;23.226;2024-03-08T06:23:29;110.35;;;58.72;;
56242;SDS011;42155;53.096;23.226;2024-03-08T06:25:30;120.97;;;63.72;;
56242;SDS011;42155;53.096;23.226;2024-03-08T06:27:30;120.63;;;61.00;;
56242;SDS011;42155;53.096;23.226;2024-03-08T06:29:30;118.88;;;63.50;;
56242;SDS011;42155;53.096;23.226;2024-03-08T06:31:31;125.20;;;65.18;;
56242;SDS011;42155;53.096;23.226;2024-03-08T06:33:31;118.57;;;62.28;;
56242;SDS011;42155;53.096;23.226;2024-03-08T06:35:31;109.63;;;60.33;;
56242;SDS011;42155;53.096;23.226;2024-03-08T06:37:32;103.60;;;55.58;;
56242;SDS011;42155;53.096;23.226;2024-03-08T06:39:33;104.15;;;53.45;;
56242;SDS011;42155;53.096;23.226;2024-03-08T06:41:33;115.43;;;54.22;;
56242;SDS011;42155;53.096;23.226;2024-03-08T06:43:33;110.22;;;53.25;;
56242;SDS011;42155;53.096;23.226;2024-03-08T06:45:34;108.70;;;52.67;;
56242;SDS011;42155;53.096;23.226;2024-03-08T06:47:36;99.45;;;47.85;;
56242;SDS011;42155;53.096;23.226;2024-03-08T06:49:36;89.15;;;41.90;;
56242;SDS011;42155;53.096;23.226;2024-03-08T06:51:36;91.50;;;42.72;;
56242;SDS011;42155;53.096;23.226;2024-03-08T06:53:37;85.85;;;40.45;;
56242;SDS011;42155;53.096;23.226;2024-03-08T06:55:37;95.10;;;42.35;;
56242;SDS011;42155;53.096;23.226;2024-03-08T06:57:41;96.72;;;43.42;;
56242;SDS011;42155;53.096;23.226;2024-03-08T06:59:41;104.30;;;44.03;;
56242;SDS011;42155;53.096;23.226;2024-03-08T07:01:42;107.13;;;45.28;;
56242;SDS011;42155;53.096;23.226;2024-03-08T07:03:42;110.07;;;46.53;;
56242;SDS011;42155;53.096;23.226;2024-03-08T07:05:43;92.03;;;41.40;;
56242;SDS011;42155;53.096;23.226;2024-03-08T07:07:43;102.35;;;42.13;;
56242;SDS011;42155;53.096;23.226;2024-03-08T07:09:46;90.18;;;39.88;;
56242;SDS011;42155;53.096;23.226;2024-03-08T07:11:47;102.28;;;41.85;;
56242;SDS011;42155;53.096;23.226;2024-03-08T07:13:47;91.90;;;36.70;;
56242;SDS011;42155;53.096;23.226;2024-03-08T07:15:47;94.72;;;39.13;;
56242;SDS011;42155;53.096;23.226;2024-03-08T07:17:48;94.50;;;40.10;;
56242;SDS011;42155;53.096;23.226;2024-03-08T07:19:49;87.38;;;34.95;;
56242;SDS011;42155;53.096;23.226;2024-03-08T07:21:49;81.97;;;31.33;;
56242;SDS011;42155;53.096;23.226;2024-03-08T07:23:50;80.20;;;33.80;;
56242;SDS011;42155;53.096;23.226;2024-03-08T07:25:50;72.78;;;28.65;;
56242;SDS011;42155;53.096;23.226;2024-03-08T07:27:51;74.82;;;29.13;;
56242;SDS011;42155;53.096;23.226;2024-03-08T07:29:52;71.63;;;28.73;;
56242;SDS011;42155;53.096;23.226;2024-03-08T07:31:52;74.60;;;28.75;;
56242;SDS011;42155;53.096;23.226;2024-03-08T07:33:52;70.05;;;26.65;;
56242;SDS011;42155;53.096;23.226;2024-03-08T07:35:53;71.38;;;26.98;;
56242;SDS011;42155;53.096;23.226;2024-03-08T07:37:53;66.80;;;27.15;;
56242;SDS011;42155;53.096;23.226;2024-03-08T07:39:53;58.33;;;25.05;;
56242;SDS011;42155;53.096;23.226;2024-03-08T07:41:54;60.88;;;24.77;;
56242;SDS011;42155;53.096;23.226;2024-03-08T07:43:54;50.55;;;22.48;;
56242;SDS011;42155;53.096;23.226;2024-03-08T07:45:54;54.83;;;22.83;;
56242;SDS011;42155;53.096;23.226;2024-03-08T07:47:55;49.03;;;18.80;;
56242;SDS011;42155;53.096;23.226;2024-03-08T07:49:55;43.28;;;18.08;;
56242;SDS011;42155;53.096;23.226;2024-03-08T07:51:56;39.55;;;16.70;;
56242;SDS011;42155;53.096;23.226;2024-03-08T07:53:57;33.45;;;15.05;;
56242;SDS011;42155;53.096;23.226;2024-03-08T07:55:57;31.45;;;15.13;;
56242;SDS011;42155;53.096;23.226;2024-03-08T07:57:57;40.72;;;15.18;;
56242;SDS011;42155;53.096;23.226;2024-03-08T07:59:58;33.35;;;15.20;;
56242;SDS011;42155;53.096;23.226;2024-03-08T08:01:58;36.28;;;15.23;;
56242;SDS011;42155;53.096;23.226;2024-03-08T08:03:58;33.65;;;14.32;;
56242;SDS011;42155;53.096;23.226;2024-03-08T08:05:59;31.95;;;14.45;;
56242;SDS011;42155;53.096;23.226;2024-03-08T08:07:59;38.13;;;16.83;;
56242;SDS011;42155;53.096;23.226;2024-03-08T08:09:59;42.50;;;18.27;;
56242;SDS011;42155;53.096;23.226;2024-03-08T08:12:00;37.88;;;14.57;;
56242;SDS011;42155;53.096;23.226;2024-03-08T08:14:00;32.58;;;13.48;;
56242;SDS011;42155;53.096;23.226;2024-03-08T08:16:01;37.53;;;12.27;;
56242;SDS011;42155;53.096;23.226;2024-03-08T08:18:01;29.83;;;11.50;;
56242;SDS011;42155;53.096;23.226;2024-03-08T08:20:01;35.97;;;12.02;;
56242;SDS011;42155;53.096;23.226;2024-03-08T08:22:02;30.05;;;10.93;;
56242;SDS011;42155;53.096;23.226;2024-03-08T08:24:03;25.65;;;11.15;;
56242;SDS011;42155;53.096;23.226;2024-03-08T08:26:03;30.13;;;11.82;;
56242;SDS011;42155;53.096;23.226;2024-03-08T08:28:04;28.23;;;11.15;;
56242;SDS011;42155;53.096;23.226;2024-03-08T08:30:04;23.05;;;10.38;;
56242;SDS011;42155;53.096;23.226;2024-03-08T08:32:05;24.58;;;11.10;;
56242;SDS011;42155;53.096;23.226;2024-03-08T08:34:08;25.10;;;11.00;;
56242;SDS011;42155;53.096;23.226;2024-03-08T08:36:09;27.42;;;11.13;;
56242;SDS011;42155;53.096;23.226;2024-03-08T08:38:09;26.60;;;11.45;;
56242;SDS011;42155;53.096;23.226;2024-03-08T08:40:10;23.48;;;11.00;;
56242;SDS011;42155;53.096;23.226;2024-03-08T08:42:10;32.30;;;12.18;;
56242;SDS011;42155;53.096;23.226;2024-03-08T08:44:11;27.27;;;12.13;;
56242;SDS011;42155;53.096;23.226;2024-03-08T08:46:11;28.42;;;12.65;;
56242;SDS011;42155;53.096;23.226;2024-03-08T08:48:11;23.58;;;10.70;;
56242;SDS011;42155;53.096;23.226;2024-03-08T08:50:12;32.08;;;11.77;;
56242;SDS011;42155;53.096;23.226;2024-03-08T08:52:12;23.90;;;12.15;;
56242;SDS011;42155;53.096;23.226;2024-03-08T08:54:13;26.40;;;10.20;;
56242;SDS011;42155;53.096;23.226;2024-03-08T08:56:13;24.80;;;9.82;;
56242;SDS011;42155;53.096;23.226;2024-03-08T08:58:13;21.27;;;9.73;;
56242;SDS011;42155;53.096;23.226;2024-03-08T09:00:14;21.33;;;9.63;;
56242;SDS011;42155;53.096;23.226;2024-03-08T09:02:14;17.40;;;8.30;;
56242;SDS011;42155;53.096;23.226;2024-03-08T09:04:15;20.27;;;7.57;;
56242;SDS011;42155;53.096;23.226;2024-03-08T09:06:15;15.73;;;7.65;;
56242;SDS011;42155;53.096;23.226;2024-03-08T09:08:16;16.20;;;7.63;;
56242;SDS011;42155;53.096;23.226;2024-03-08T09:10:16;19.90;;;7.15;;
56242;SDS011;42155;53.096;23.226;2024-03-08T09:12:17;17.63;;;7.35;;
56242;SDS011;42155;53.096;23.226;2024-03-08T09:14:17;17.27;;;8.27;;
56242;SDS011;42155;53.096;23.226;2024-03-08T09:16:17;17.13;;;7.05;;
56242;SDS011;42155;53.096;23.226;2024-03-08T09:18:18;15.27;;;6.95;;
56242;SDS011;42155;53.096;23.226;2024-03-08T09:20:18;16.85;;;7.68;;
56242;SDS011;42155;53.096;23.226;2024-03-08T09:22:18;15.23;;;5.63;;
56242;SDS011;42155;53.096;23.226;2024-03-08T09:24:19;14.15;;;5.85;;
56242;SDS011;42155;53.096;23.226;2024-03-08T09:26:19;14.57;;;6.38;;
56242;SDS011;42155;53.096;23.226;2024-03-08T09:28:19;16.10;;;5.85;;
56242;SDS011;42155;53.096;23.226;2024-03-08T09:30:20;9.88;;;4.80;;
56242;SDS011;42155;53.096;23.226;2024-03-08T09:32:20;10.57;;;5.63;;
56242;SDS011;42155;53.096;23.226;2024-03-08T09:34:21;10.63;;;5.05;;
56242;SDS011;42155;53.096;23.226;2024-03-08T09:36:21;11.73;;;5.15;;
56242;SDS011;42155;53.096;23.226;2024-03-08T09:38:21;11.93;;;4.63;;
56242;SDS011;42155;53.096;23.226;2024-03-08T09:40:22;10.82;;;4.80;;
56242;SDS011;42155;53.096;23.226;2024-03-08T09:42:22;8.50;;;4.38;;
56242;SDS011;42155;53.096;23.226;2024-03-08T09:44:22;14.27;;;4.70;;
56242;SDS011;42155;53.096;23.226;2024-03-08T09:46:23;14.68;;;4.15;;
56242;SDS011;42155;53.096;23.226;2024-03-08T09:48:23;7.75;;;3.65;;
56242;SDS011;42155;53.096;23.226;2024-03-08T09:50:25;8.80;;;4.50;;
56242;SDS011;42155;53.096;23.226;2024-03-08T09:52:26;13.07;;;5.13;;
56242;SDS011;42155;53.096;23.226;2024-03-08T09:54:26;12.23;;;5.57;;
56242;SDS011;42155;53.096;23.226;2024-03-08T09:56:27;11.70;;;4.93;;
56242;SDS011;42155;53.096;23.226;2024-03-08T09:58:27;7.30;;;3.83;;
56242;SDS011;42155;53.096;23.226;2024-03-08T10:00:28;6.78;;;3.70;;
56242;SDS011;42155;53.096;23.226;2024-03-08T10:02:29;9.65;;;4.78;;
56242;SDS011;42155;53.096;23.226;2024-03-08T10:04:29;10.73;;;5.70;;
56242;SDS011;42155;53.096;23.226;2024-03-08T10:06:30;13.75;;;6.05;;
56242;SDS011;42155;53.096;23.226;2024-03-08T10:08:30;13.70;;;6.50;;
56242;SDS011;42155;53.096;23.226;2024-03-08T10:10:31;12.77;;;5.95;;
56242;SDS011;42155;53.096;23.226;2024-03-08T10:12:31;12.18;;;5.95;;
56242;SDS011;42155;53.096;23.226;2024-03-08T10:14:31;10.73;;;5.50;;
56242;SDS011;42155;53.096;23.226;2024-03-08T10:16:32;12.57;;;6.15;;
56242;SDS011;42155;53.096;23.226;2024-03-08T10:18:32;18.58;;;7.03;;
56242;SDS011;42155;53.096;23.226;2024-03-08T10:20:33;15.75;;;7.28;;
56242;SDS011;42155;53.096;23.226;2024-03-08T10:22:33;16.48;;;7.18;;
56242;SDS011;42155;53.096;23.226;2024-03-08T10:24:34;13.70;;;6.75;;
56242;SDS011;42155;53.096;23.226;2024-03-08T10:26:34;13.20;;;6.72;;
56242;SDS011;42155;53.096;23.226;2024-03-08T10:28:37;13.02;;;6.63;;
56242;SDS011;42155;53.096;23.226;2024-03-08T10:30:37;15.27;;;6.78;;
56242;SDS011;42155;53.096;23.226;2024-03-08T10:32:37;15.38;;;6.60;;
56242;SDS011;42155;53.096;23.226;2024-03-08T10:34:38;14.40;;;7.15;;
56242;SDS011;42155;53.096;23.226;2024-03-08T10:36:39;15.57;;;6.65;;
56242;SDS011;42155;53.096;23.226;2024-03-08T10:38:40;13.75;;;6.03;;
56242;SDS011;42155;53.096;23.226;2024-03-08T10:40:42;14.15;;;6.03;;
56242;SDS011;42155;53.096;23.226;2024-03-08T10:43:03;13.60;;;6.28;;
56242;SDS011;42155;53.096;23.226;2024-03-08T10:47:18;13.50;;;6.13;;
56242;SDS011;42155;53.096;23.226;2024-03-08T10:49:25;16.50;;;6.85;;
56242;SDS011;42155;53.096;23.226;2024-03-08T10:51:38;16.45;;;6.20;;
56242;SDS011;42155;53.096;23.226;2024-03-08T10:53:40;12.43;;;5.70;;
56242;SDS011;42155;53.096;23.226;2024-03-08T10:55:41;11.70;;;6.53;;
56242;SDS011;42155;53.096;23.226;2024-03-08T10:57:43;14.40;;;7.00;;
56242;SDS011;42155;53.096;23.226;2024-03-08T10:59:44;13.20;;;5.78;;
56242;SDS011;42155;53.096;23.226;2024-03-08T11:01:46;12.05;;;6.13;;
56242;SDS011;42155;53.096;23.226;2024-03-08T11:03:47;16.20;;;7.55;;
56242;SDS011;42155;53.096;23.226;2024-03-08T11:05:48;12.82;;;5.85;;
56242;SDS011;42155;53.096;23.226;2024-03-08T11:07:49;17.23;;;6.40;;
56242;SDS011;42155;53.096;23.226;2024-03-08T11:09:50;11.60;;;5.50;;
56242;SDS011;42155;53.096;23.226;2024-03-08T11:11:51;14.55;;;5.45;;
56242;SDS011;42155;53.096;23.226;2024-03-08T11:13:52;12.93;;;5.72;;
56242;SDS011;42155;53.096;23.226;2024-03-08T11:15:53;14.80;;;6.15;;
56242;SDS011;42155;53.096;23.226;2024-03-08T11:17:53;11.98;;;6.03;;
56242;SDS011;42155;53.096;23.226;2024-03-08T11:19:59;13.55;;;6.25;;
56242;SDS011;42155;53.096;23.226;2024-03-08T11:22:03;11.65;;;5.53;;
56242;SDS011;42155;53.096;23.226;2024-03-08T11:24:06;12.43;;;6.40;;
56242;SDS011;42155;53.096;23.226;2024-03-08T11:26:17;12.63;;;5.97;;
56242;SDS011;42155;53.096;23.226;2024-03-08T11:28:23;14.85;;;6.50;;
56242;SDS011;42155;53.096;23.226;2024-03-08T11:30:24;11.95;;;6.50;;
56242;SDS011;42155;53.096;23.226;2024-03-08T11:32:27;12.82;;;6.40;;
56242;SDS011;42155;53.096;23.226;2024-03-08T11:34:29;15.48;;;6.43;;